Weather at Old McEntire Ranch Airport [CLOSED]

Public forecast

Using degrees Fahrenheit for public forecast. Weather courtesy of forecast.io.

Closest aviation weather report (METAR) to Old McEntire Ranch Airport

Closest report is Big Spring Mc Mahon-Wrinkle Airport, 27.5 nm (51.0 km) NW. Retrieved 2021/07/24 22:15 UTC (13 minutes ago):

KBPG 242215Z AUTO 15003KT 10SM CLR 37/16 A2999 RMK AO2 LTG DSNT S T03670163

Closest aviation forecast (TAF) to Old McEntire Ranch Airport

Closest forecast is San Angelo Regional Mathis Field, 45.8 nm (84.8 km) SE. Retrieved 2021/07/24 18:22 UTC (4 hours ago):

TAF KSJT 241720Z 2418/2518 18012G20KT P6SM FEW050 FM250200 15008KT P6SM SKC